Airport View

Enter AWOS ICAO identifier for current METAR.

ex. KFNL

KLAA 112053Z AUTO 17016G23KT 10SM CLR 14/M06 A2998 RMK AO2 SLP158 T01441056 56056

11 Dec 2019 21:52

Frequency: 135.625

Phone: 719-336-3854

Other Area AWOS: KLHX - K3K3 - KSPD - KJHN

TAF KPUB 111731Z 1118/1218 19008KT P6SM BKN200 FM120000 32011KT P6SM SCT120 BKN200 FM120500 29007KT P6SM SCT200